createdAt,value
2023-02-07T00:00:56.042Z,24.22
2023-02-07T00:03:48.779Z,24.14
2023-02-07T00:06:38.688Z,24.17
2023-02-07T00:09:27.306Z,24.18
2023-02-07T00:12:16.008Z,24.12
2023-02-07T00:15:05.889Z,24.12
2023-02-07T00:17:54.685Z,24.19
2023-02-07T00:20:44.665Z,24.17
2023-02-07T00:23:33.885Z,24.13
2023-02-07T00:26:23.885Z,24.15
2023-02-07T00:29:12.661Z,24.14
2023-02-07T00:32:01.358Z,24.15
2023-02-07T00:34:50.560Z,24.10
2023-02-07T00:37:40.652Z,24.17
2023-02-07T00:40:29.342Z,24.04
2023-02-07T00:43:29.043Z,24.08
2023-02-07T00:46:19.166Z,24.00
2023-02-07T00:49:08.194Z,23.97
2023-02-07T00:51:56.788Z,23.98
2023-02-07T00:54:46.744Z,23.95
2023-02-07T00:57:35.517Z,23.92
2023-02-07T01:00:24.218Z,23.86
2023-02-07T01:03:13.042Z,23.86
2023-02-07T01:06:01.736Z,23.86
2023-02-07T01:08:50.589Z,23.80
2023-02-07T01:11:40.595Z,23.87
2023-02-07T01:14:31.189Z,23.98
2023-02-07T01:17:19.864Z,23.99
2023-02-07T01:20:09.762Z,23.95
2023-02-07T01:22:58.504Z,23.99
2023-02-07T01:25:47.582Z,24.03
2023-02-07T01:28:37.585Z,23.99
2023-02-07T01:31:26.420Z,23.97
2023-02-07T01:34:16.590Z,23.93
2023-02-07T01:37:05.388Z,23.96
2023-02-07T01:39:54.869Z,23.98
2023-02-07T01:42:46.236Z,23.89
2023-02-07T01:45:40.070Z,23.93
2023-02-07T01:48:33.160Z,23.90
2023-02-07T01:51:21.793Z,23.83
2023-02-07T01:54:12.366Z,23.80
2023-02-07T01:57:03.787Z,23.85
2023-02-07T01:59:53.948Z,23.81
2023-02-07T02:02:44.259Z,23.89
2023-02-07T02:05:34.113Z,23.89
2023-02-07T02:08:23.338Z,23.98
2023-02-07T02:11:24.102Z,23.95
2023-02-07T02:14:20.714Z,23.89
2023-02-07T02:17:14.365Z,23.95
2023-02-07T02:20:54.057Z,23.98
2023-02-07T02:24:02.107Z,23.90
2023-02-07T02:26:59.784Z,23.83
2023-02-07T02:30:08.489Z,23.87
2023-02-07T02:33:17.044Z,23.89
2023-02-07T02:36:12.746Z,23.89
2023-02-07T02:39:05.344Z,23.85
2023-02-07T02:42:01.286Z,23.89
2023-02-07T02:44:54.087Z,23.89
2023-02-07T02:47:46.621Z,23.84
2023-02-07T02:50:36.984Z,23.81
2023-02-07T02:53:25.828Z,23.79
2023-02-07T02:56:39.758Z,23.79
2023-02-07T02:59:49.125Z,23.74
2023-02-07T03:02:42.803Z,23.75
2023-02-07T03:05:41.134Z,23.76
2023-02-07T03:08:34.680Z,23.77
2023-02-07T03:11:26.013Z,23.80
2023-02-07T03:14:19.081Z,23.78
2023-02-07T03:17:15.883Z,23.76
2023-02-07T03:20:09.468Z,23.79
2023-02-07T03:23:01.246Z,23.79
2023-02-07T03:25:50.872Z,23.85
2023-02-07T03:28:41.064Z,23.86
2023-02-07T03:31:30.868Z,23.89
2023-02-07T03:34:22.813Z,23.93
2023-02-07T03:37:18.428Z,23.91
2023-02-07T03:40:09.561Z,23.95
2023-02-07T03:43:08.342Z,23.88
2023-02-07T03:45:57.438Z,23.83
2023-02-07T03:48:46.201Z,23.77
2023-02-07T03:51:35.217Z,23.77
2023-02-07T03:54:23.849Z,23.73
2023-02-07T03:57:19.493Z,23.77
2023-02-07T04:00:11.532Z,23.80
2023-02-07T04:03:00.128Z,23.84
2023-02-07T04:05:49.513Z,23.83
2023-02-07T04:08:38.140Z,23.87
2023-02-07T04:11:26.776Z,23.85
2023-02-07T04:14:16.776Z,23.89
2023-02-07T04:17:05.473Z,23.88
2023-02-07T04:19:55.066Z,23.89
2023-02-07T04:22:43.923Z,23.90
2023-02-07T04:25:32.643Z,23.83
2023-02-07T04:28:21.412Z,23.83
2023-02-07T04:31:11.509Z,23.86
2023-02-07T04:34:00.138Z,23.87
2023-02-07T04:36:48.743Z,23.82
2023-02-07T04:39:37.325Z,23.81
2023-02-07T04:42:25.905Z,23.74
2023-02-07T04:45:14.830Z,23.68
2023-02-07T04:48:05.034Z,23.69
2023-02-07T04:50:53.696Z,23.70
2023-02-07T04:53:42.375Z,23.79
2023-02-07T04:56:30.993Z,23.79
2023-02-07T04:59:19.579Z,23.89
2023-02-07T05:02:08.265Z,23.91
2023-02-07T05:04:58.265Z,23.92
2023-02-07T05:07:46.879Z,23.92
2023-02-07T05:10:36.114Z,23.93
2023-02-07T05:13:25.345Z,23.94
2023-02-07T05:16:14.436Z,23.90
2023-02-07T05:19:03.108Z,23.97
2023-02-07T05:21:53.193Z,23.90
2023-02-07T05:24:41.792Z,23.83
2023-02-07T05:27:30.706Z,23.87
2023-02-07T05:30:20.477Z,23.87
2023-02-07T05:33:09.296Z,23.78
2023-02-07T05:35:57.994Z,23.79
2023-02-07T05:38:47.950Z,23.83
2023-02-07T05:41:36.560Z,23.86
2023-02-07T05:44:25.211Z,23.79
2023-02-07T05:47:13.883Z,23.91
2023-02-07T05:50:02.585Z,23.76
2023-02-07T05:52:51.459Z,23.70
2023-02-07T05:55:41.623Z,23.77
2023-02-07T05:58:30.302Z,23.79
2023-02-07T06:01:18.959Z,23.82
2023-02-07T06:04:07.631Z,23.84
2023-02-07T06:06:56.242Z,23.92
2023-02-07T06:09:44.933Z,23.90
2023-02-07T06:12:35.674Z,23.91
2023-02-07T06:15:24.286Z,23.89
2023-02-07T06:18:12.913Z,23.96
2023-02-07T06:21:01.643Z,24.00
2023-02-07T06:23:51.724Z,23.97
2023-02-07T06:26:40.368Z,24.02
2023-02-07T06:29:30.429Z,23.92
2023-02-07T06:32:19.009Z,23.86
2023-02-07T06:35:09.144Z,23.85
2023-02-07T06:37:57.749Z,23.80
2023-02-07T06:40:46.731Z,23.76
2023-02-07T06:43:36.581Z,23.79
2023-02-07T06:46:26.686Z,23.75
2023-02-07T06:49:15.419Z,23.73
2023-02-07T06:52:04.011Z,23.71
2023-02-07T06:54:52.613Z,23.75
2023-02-07T06:57:41.266Z,23.74
2023-02-07T07:00:29.908Z,23.84
2023-02-07T07:03:20.309Z,23.81
2023-02-07T07:06:08.930Z,23.93
2023-02-07T07:08:57.686Z,23.92
2023-02-07T07:11:46.290Z,24.07
2023-02-07T07:14:35.053Z,24.14
2023-02-07T07:17:23.748Z,24.11
2023-02-07T07:20:14.020Z,24.10
2023-02-07T07:23:02.688Z,24.16
2023-02-07T07:25:51.364Z,24.15
2023-02-07T07:28:40.029Z,24.16
2023-02-07T07:31:28.933Z,24.09
2023-02-07T07:34:18.126Z,24.11
2023-02-07T07:37:08.427Z,24.23
2023-02-07T07:39:57.119Z,24.23
2023-02-07T07:42:45.821Z,24.28
2023-02-07T07:45:34.486Z,24.22
2023-02-07T07:48:23.637Z,24.25
2023-02-07T07:51:12.297Z,24.33
2023-02-07T07:54:03.094Z,24.33
2023-02-07T07:56:51.782Z,24.36
2023-02-07T07:59:40.370Z,24.35
2023-02-07T08:02:29.103Z,24.34
2023-02-07T08:05:17.664Z,24.34
2023-02-07T08:08:06.785Z,24.42
2023-02-07T08:10:57.106Z,24.43
2023-02-07T08:13:45.718Z,24.43
2023-02-07T08:16:34.368Z,24.43
2023-02-07T08:19:23.063Z,24.50
2023-02-07T08:22:12.390Z,24.47
2023-02-07T08:25:01.039Z,24.51
2023-02-07T08:27:51.070Z,24.59
2023-02-07T08:30:40.129Z,24.52
2023-02-07T08:33:30.342Z,24.52
2023-02-07T08:36:19.365Z,24.50
2023-02-07T08:39:07.981Z,24.54
2023-02-07T08:41:56.599Z,24.56
2023-02-07T08:44:46.813Z,24.59
2023-02-07T08:47:35.560Z,24.57
2023-02-07T08:50:24.176Z,24.58
2023-02-07T08:53:13.119Z,24.59
2023-02-07T08:56:01.864Z,24.59
2023-02-07T08:58:50.603Z,24.59
2023-02-07T09:01:40.716Z,24.64
2023-02-07T09:04:29.522Z,24.64
2023-02-07T09:07:18.292Z,24.65
2023-02-07T09:10:08.883Z,24.69
2023-02-07T09:12:57.648Z,24.67
2023-02-07T09:15:46.293Z,24.71
2023-02-07T09:18:36.380Z,24.79
2023-02-07T09:21:25.482Z,24.84
2023-02-07T09:24:14.123Z,24.86
2023-02-07T09:27:03.377Z,24.96
2023-02-07T09:29:52.081Z,24.99
2023-02-07T09:32:40.723Z,24.97
2023-02-07T09:35:30.839Z,24.95
2023-02-07T09:38:21.245Z,25.01
2023-02-07T09:41:18.073Z,25.05
2023-02-07T09:44:14.906Z,25.08
2023-02-07T09:47:05.553Z,25.04
2023-02-07T09:49:56.491Z,25.09
2023-02-07T09:52:49.418Z,25.09
2023-02-07T09:55:48.057Z,25.19
2023-02-07T09:58:40.682Z,25.08
2023-02-07T10:01:35.077Z,25.09
2023-02-07T10:04:30.915Z,25.11
2023-02-07T10:07:19.728Z,25.08
2023-02-07T10:10:17.028Z,25.13
2023-02-07T10:13:21.833Z,25.19
2023-02-07T10:16:22.662Z,25.17
2023-02-07T10:19:16.477Z,25.16
2023-02-07T10:22:13.490Z,25.10
2023-02-07T10:25:23.694Z,25.05
2023-02-07T10:28:52.184Z,25.12
2023-02-07T10:31:47.476Z,25.16
2023-02-07T10:34:41.287Z,25.12
2023-02-07T10:37:34.556Z,25.06
2023-02-07T10:40:27.132Z,25.03
2023-02-07T10:43:29.484Z,24.96
2023-02-07T10:46:21.002Z,25.07
2023-02-07T10:49:24.617Z,25.07
2023-02-07T10:52:33.236Z,25.11
2023-02-07T10:55:36.003Z,25.05
2023-02-07T10:58:27.104Z,25.03
2023-02-07T11:01:21.063Z,25.05
2023-02-07T11:04:24.768Z,25.02
2023-02-07T11:07:17.190Z,25.04
2023-02-07T11:10:18.106Z,25.06
2023-02-07T11:13:13.925Z,25.08
2023-02-07T11:16:07.230Z,25.09
2023-02-07T11:18:59.389Z,25.01
2023-02-07T11:21:49.767Z,25.07
2023-02-07T11:24:39.399Z,25.10
2023-02-07T11:27:29.118Z,25.16
2023-02-07T11:30:20.503Z,25.15
2023-02-07T11:33:23.558Z,25.11
2023-02-07T11:36:15.172Z,24.94
2023-02-07T11:39:03.825Z,25.06
2023-02-07T11:41:57.102Z,25.00
2023-02-07T11:44:46.759Z,24.87
2023-02-07T11:47:38.260Z,24.71
2023-02-07T11:50:33.136Z,24.61
2023-02-07T11:53:26.557Z,24.51
2023-02-07T11:56:26.082Z,24.36
2023-02-07T11:59:18.799Z,24.33
2023-02-07T12:02:17.238Z,24.36
2023-02-07T12:05:16.163Z,24.36
2023-02-07T12:08:08.553Z,24.37
2023-02-07T12:11:01.126Z,24.42
2023-02-07T12:13:52.951Z,24.40
2023-02-07T12:16:49.266Z,24.44
2023-02-07T12:19:41.882Z,24.45
2023-02-07T12:22:37.324Z,24.50
2023-02-07T12:25:30.930Z,24.50
2023-02-07T12:28:26.999Z,24.54
2023-02-07T12:31:21.370Z,24.62
2023-02-07T12:34:16.430Z,24.56
2023-02-07T12:37:19.583Z,24.55
2023-02-07T12:40:16.246Z,24.62
2023-02-07T12:43:11.000Z,24.67
2023-02-07T12:46:16.377Z,24.76
2023-02-07T12:49:24.375Z,24.78
2023-02-07T12:52:25.980Z,24.75
2023-02-07T12:55:25.406Z,24.80
2023-02-07T12:58:50.773Z,24.84
2023-02-07T13:01:42.961Z,24.87
2023-02-07T13:05:00.138Z,24.95
2023-02-07T13:07:58.556Z,24.85
2023-02-07T13:11:03.416Z,24.95
2023-02-07T13:14:01.953Z,24.97
2023-02-07T13:16:58.874Z,24.98
2023-02-07T13:19:52.905Z,24.99
2023-02-07T13:22:45.756Z,24.95
2023-02-07T13:25:38.081Z,25.01
2023-02-07T13:28:30.326Z,24.95
2023-02-07T13:31:22.197Z,25.00
2023-02-07T13:34:16.019Z,25.04
2023-02-07T13:37:16.055Z,25.00
2023-02-07T13:40:13.177Z,25.00
2023-02-07T13:43:06.789Z,25.01
2023-02-07T13:46:04.724Z,25.01
2023-02-07T13:48:59.373Z,25.09
2023-02-07T13:51:53.475Z,25.01
2023-02-07T13:54:45.339Z,25.06
2023-02-07T13:58:00.667Z,25.02
2023-02-07T14:01:10.084Z,24.97
2023-02-07T14:04:05.986Z,24.96
2023-02-07T14:07:02.580Z,24.89
2023-02-07T14:09:51.573Z,24.95
2023-02-07T14:12:40.835Z,24.94
2023-02-07T14:15:58.775Z,24.98
2023-02-07T14:18:55.387Z,24.85
2023-02-07T14:21:45.665Z,24.78
2023-02-07T14:24:34.372Z,24.76
2023-02-07T14:27:29.236Z,24.58
2023-02-07T14:30:21.095Z,24.61
2023-02-07T14:33:15.549Z,24.64
2023-02-07T14:36:19.521Z,24.48
2023-02-07T14:39:27.251Z,24.47
2023-02-07T14:42:19.705Z,24.37
2023-02-07T14:45:08.962Z,24.38
2023-02-07T14:47:57.651Z,24.36
2023-02-07T14:50:53.527Z,24.34
2023-02-07T14:53:44.968Z,24.21
2023-02-07T14:56:44.697Z,24.19
2023-02-07T14:59:37.403Z,24.20
2023-02-07T15:02:35.144Z,24.21
2023-02-07T15:08:19.303Z,24.31
2023-02-07T15:11:09.535Z,24.26
2023-02-07T15:14:02.564Z,24.35
2023-02-07T15:16:51.461Z,24.27
2023-02-07T15:19:42.091Z,24.24
2023-02-07T15:22:38.708Z,24.16
2023-02-07T15:25:28.005Z,24.03
2023-02-07T15:28:27.327Z,24.02
2023-02-07T15:31:18.457Z,24.03
2023-02-07T15:34:09.877Z,24.07
2023-02-07T15:36:59.357Z,24.02
2023-02-07T15:39:48.945Z,24.18
2023-02-07T15:42:37.596Z,24.18
2023-02-07T15:45:27.954Z,24.21
2023-02-07T15:48:18.246Z,24.21
2023-02-07T15:51:07.387Z,24.39
2023-02-07T15:53:58.490Z,24.45
2023-02-07T15:56:48.657Z,24.47
2023-02-07T16:00:26.934Z,24.48
2023-02-07T16:03:21.242Z,24.46
2023-02-07T16:06:15.727Z,24.33
2023-02-07T16:09:06.039Z,24.21
2023-02-07T16:11:54.645Z,24.11
2023-02-07T16:14:43.516Z,24.06
2023-02-07T16:17:41.955Z,24.06
2023-02-07T16:20:33.274Z,24.06
2023-02-07T16:23:21.987Z,24.19
2023-02-07T16:26:10.837Z,24.07
2023-02-07T16:28:59.488Z,24.01
2023-02-07T16:31:48.271Z,24.03
2023-02-07T16:34:42.487Z,23.97
2023-02-07T16:37:37.425Z,24.02
2023-02-07T16:40:26.641Z,23.98
2023-02-07T16:43:36.045Z,24.07
2023-02-07T16:46:24.671Z,24.07
2023-02-07T16:49:16.099Z,24.05
2023-02-07T16:52:04.977Z,23.98
2023-02-07T16:54:55.494Z,23.99
2023-02-07T16:57:55.986Z,24.14
2023-02-07T17:00:45.140Z,24.19
2023-02-07T17:03:42.533Z,24.29
2023-02-07T17:06:32.215Z,24.47
2023-02-07T17:09:22.324Z,24.46
2023-02-07T17:12:14.450Z,24.51
2023-02-07T17:15:03.421Z,24.61
2023-02-07T17:17:53.808Z,24.73
2023-02-07T17:20:42.789Z,24.79
2023-02-07T17:23:31.707Z,24.77
2023-02-07T17:26:25.103Z,24.77
2023-02-07T17:29:17.457Z,24.89
2023-02-07T17:32:07.297Z,24.98
2023-02-07T17:34:56.951Z,25.11
2023-02-07T17:37:46.287Z,25.12
2023-02-07T17:40:37.964Z,25.21
2023-02-07T17:43:27.363Z,25.30
2023-02-07T17:46:19.593Z,25.17
2023-02-07T17:49:14.879Z,25.29
2023-02-07T17:52:03.790Z,25.37
2023-02-07T17:54:54.013Z,25.37
2023-02-07T17:57:42.885Z,25.36
2023-02-07T18:00:33.595Z,25.38
2023-02-07T18:03:23.635Z,25.42
2023-02-07T18:06:15.082Z,25.46
2023-02-07T18:09:05.007Z,25.40
2023-02-07T18:11:56.173Z,25.38
2023-02-07T18:14:46.080Z,25.54
2023-02-07T18:17:34.732Z,25.52
2023-02-07T18:20:27.467Z,25.55
2023-02-07T18:23:16.073Z,25.55
2023-02-07T18:26:05.499Z,25.67
2023-02-07T18:28:54.097Z,25.69
2023-02-07T18:31:43.590Z,25.74
2023-02-07T18:34:32.473Z,25.72
2023-02-07T18:37:22.600Z,25.76
2023-02-07T18:40:12.896Z,25.62
2023-02-07T18:43:01.531Z,25.61
2023-02-07T18:45:50.391Z,25.66
2023-02-07T18:48:39.415Z,25.73
2023-02-07T18:51:28.324Z,25.78
2023-02-07T18:54:19.107Z,25.75
2023-02-07T18:57:08.233Z,25.69
2023-02-07T18:59:56.909Z,25.64
2023-02-07T19:02:45.692Z,25.61
2023-02-07T19:05:34.433Z,25.55
2023-02-07T19:08:23.015Z,25.52
2023-02-07T19:11:13.089Z,25.57
2023-02-07T19:14:01.847Z,25.55
2023-02-07T19:16:54.045Z,25.58
2023-02-07T19:19:44.189Z,25.63
2023-02-07T19:22:36.152Z,25.73
2023-02-07T19:25:25.686Z,25.76
2023-02-07T19:28:16.484Z,25.75
2023-02-07T19:31:06.228Z,25.75
2023-02-07T19:33:55.652Z,25.77
2023-02-07T19:36:45.070Z,25.83
2023-02-07T19:39:34.696Z,25.83
2023-02-07T19:42:24.864Z,25.89
2023-02-07T19:45:15.528Z,25.87
2023-02-07T19:48:04.934Z,25.87
2023-02-07T19:51:00.758Z,25.91
2023-02-07T19:53:51.397Z,25.88
2023-02-07T19:56:42.756Z,25.94
2023-02-07T19:59:32.215Z,25.96
2023-02-07T20:02:22.837Z,25.97
2023-02-07T20:05:12.014Z,25.85
2023-02-07T20:08:01.233Z,25.69
2023-02-07T20:10:50.746Z,25.34
2023-02-07T20:13:42.077Z,25.36
2023-02-07T20:16:33.976Z,25.32
2023-02-07T20:19:24.895Z,25.33
2023-02-07T20:22:13.960Z,25.32
2023-02-07T20:25:03.902Z,25.35
2023-02-07T20:27:53.823Z,25.27
2023-02-07T20:30:46.719Z,25.18
2023-02-07T20:33:38.188Z,25.23
2023-02-07T20:36:28.796Z,25.15
2023-02-07T20:39:18.958Z,25.17
2023-02-07T20:42:07.643Z,25.13
2023-02-07T20:44:56.195Z,25.08
2023-02-07T20:47:45.103Z,25.00
2023-02-07T20:50:34.821Z,25.02
2023-02-07T20:53:24.873Z,25.00
2023-02-07T20:56:17.431Z,24.94
2023-02-07T20:59:06.226Z,24.93
2023-02-07T21:01:55.042Z,24.90
2023-02-07T21:04:43.734Z,24.87
2023-02-07T21:07:37.756Z,24.86
2023-02-07T21:10:28.573Z,24.77
2023-02-07T21:13:17.573Z,24.79
2023-02-07T21:16:20.967Z,24.71
2023-02-07T21:19:10.011Z,24.68
2023-02-07T21:21:58.685Z,24.79
2023-02-07T21:24:50.080Z,24.72
2023-02-07T21:27:40.241Z,24.75
2023-02-07T21:30:28.958Z,24.72
2023-02-07T21:33:17.656Z,24.69
2023-02-07T21:36:07.918Z,24.70
2023-02-07T21:38:59.312Z,24.66
2023-02-07T21:41:48.847Z,24.59
2023-02-07T21:44:40.150Z,24.64
2023-02-07T21:47:28.936Z,24.65
2023-02-07T21:50:17.947Z,24.65
2023-02-07T21:53:06.909Z,24.66
2023-02-07T21:55:55.731Z,24.64
2023-02-07T21:58:44.861Z,24.65
2023-02-07T22:01:37.270Z,24.64
2023-02-07T22:04:26.632Z,24.72
2023-02-07T22:07:15.336Z,24.69
2023-02-07T22:10:03.979Z,24.61
2023-02-07T22:12:52.677Z,24.64
2023-02-07T22:15:41.364Z,24.67
2023-02-07T22:18:31.728Z,24.57
2023-02-07T22:21:26.921Z,24.54
2023-02-07T22:24:16.937Z,24.48
2023-02-07T22:27:05.708Z,24.47
2023-02-07T22:29:54.739Z,24.44
2023-02-07T22:32:43.402Z,24.48
2023-02-07T22:35:37.371Z,24.34
2023-02-07T22:38:26.053Z,24.35
2023-02-07T22:41:14.895Z,24.34
2023-02-07T22:44:03.830Z,24.34
2023-02-07T22:46:53.065Z,24.34
2023-02-07T22:49:41.799Z,24.34
2023-02-07T22:52:37.498Z,24.37
2023-02-07T22:55:26.391Z,24.36
2023-02-07T22:58:16.032Z,24.36
2023-02-07T23:01:05.659Z,24.27
2023-02-07T23:03:54.944Z,24.32
2023-02-07T23:06:43.689Z,24.25
2023-02-07T23:09:33.712Z,24.29
2023-02-07T23:12:22.456Z,24.29
2023-02-07T23:15:11.612Z,24.25
2023-02-07T23:18:00.687Z,24.22
2023-02-07T23:20:49.481Z,24.27
2023-02-07T23:23:38.518Z,24.24
2023-02-07T23:26:28.884Z,24.24
2023-02-07T23:29:17.559Z,24.23
2023-02-07T23:32:06.655Z,24.24
2023-02-07T23:34:55.293Z,24.26
2023-02-07T23:37:44.023Z,24.26
2023-02-07T23:40:32.793Z,24.21
2023-02-07T23:43:22.879Z,24.18
2023-02-07T23:46:12.053Z,24.11
2023-02-07T23:49:01.089Z,24.13
2023-02-07T23:51:49.728Z,24.11
2023-02-07T23:54:38.475Z,24.13
2023-02-07T23:57:27.076Z,24.11
